< Typhoon 199211 1992 Season Typhoon 199213 >
Typhoon 199212 (MARK)
General InformationTrack Information on Google MapsDetailed Wind InformationList of All Images || NewsDisaster Info.ResourceGoogle EarthGE AnimationAtom FeedGeoJSON
Detalied Best Track (Time Zone = UTC)
Year Month Day Hour Lat. Long. Pressure (hPa) Wind (kt) Class Image Chart
1992 8 15 06 19.0 117.0 1000 0 2 Image Chart
1992 8 15 12 20.0 117.0 1000 0 2 Image Chart
1992 8 15 18 20.5 117.3 998 0 2 Image Chart
1992 8 16 00 21.0 117.4 996 40 3 Image Chart
1992 8 16 06 21.2 117.4 994 40 3 Image Chart
1992 8 16 12 21.4 117.3 992 45 3 Image Chart
1992 8 16 18 21.6 117.3 992 45 3 Image Chart
1992 8 17 00 21.8 117.4 992 45 3 Image Chart
1992 8 17 06 22.0 117.4 990 45 3 Image Chart
1992 8 17 12 22.2 117.5 990 45 3 Image Chart
1992 8 17 18 22.4 117.5 990 45 3 Image Chart
1992 8 18 00 22.7 117.7 990 45 3 Image Chart
1992 8 18 06 23.0 117.7 990 45 3 Image Chart
1992 8 18 12 23.4 117.7 994 40 3 Image Chart
1992 8 18 18 23.6 117.6 994 40 3 Image Chart
1992 8 19 00 23.6 117.4 996 40 3 Image Chart
1992 8 19 06 23.5 116.2 998 0 2 Image Chart
1992 8 19 12 23.0 116.1 1000 0 2 Image Chart
1992 8 19 18 22.7 116.2 1000 0 2 Image Chart
1992 8 20 00 22.5 116.1 1000 0 2 Image Chart
Japan Meteorological Agency Best Track Data | Correction Date : 1992-12-25
< Typhoon 199211 1992 Season Typhoon 199213 >

Help